Terminal Aerodrome Forecast
Issued by NWS North Platte, NE

Home | Current Version | Previous Version | Text Only | Print | Product List | Glossary On
Versions: 1 2 3 4 5 6 7 8 9 10 11 12
000
FTUS43 KLBF 011738
TAFLBF
TAF
KLBF 011738Z 0118/0218 13015G22KT P6SM SKC
     FM020100 16006KT P6SM SCT100
     FM020500 VRB06KT P6SM BKN120
     FM021000 VRB03KT P6SM SKC=

USA.gov is the U.S. government's official web portal to all federal, state and local government web resources and services.